CMBH weather

Mount Belcher Heliport
Mount Belcher, British Columbia, Canada

Public forecast

Using degrees Celsius for public forecast. Weather courtesy of forecast.io.

METAR (pilot weather report)

Closest report is Victoria International Airport, 11.6 nm (21.5 km) SSE. Retrieved 2019/07/18 14:00 UTC (26 minutes ago):

CYYJ 181400Z 33004KT 300V360 30SM FEW015 FEW060 FEW080 15/08 A2998 RMK CF1SC1AC1 CF TR SC TR SLP154

TAF (pilot weather forecast)

Closest forecast is Victoria International Airport, 11.6 nm (21.5 km) SSE. Retrieved 2019/07/18 12:39 UTC (2 hours ago):

TAF CYYJ 181138Z 1812/1912 25008KT P6SM FEW050 FM181700 12007KT P6SM SCT050 TEMPO 1817/1903 BKN050 BECMG 1822/1824 25010KT FM190400 30006KT P6SM -SHRA BKN030 OVC050 FM190900 27005KT P6SM SCT030 RMK NXT FCST BY 181800Z